Deuselbach, Germany

5:37 AM CEST on September 23, 2014 (GMT +0200)
IRHEINLA46 | Change Station
CLOSE
Current Station
Personal Weather Station
Location: Idar-Oberstein, RHEINLAND-PFALZ
Elevation: 971 ft
Nearby Weather Stations

Elev 971 ft 49.72 °N, 7.30 °E | Updated 1 minute ago

Partly Cloudy
Partly Cloudy
42.4 °F
Feels Like 42 °F
N
0.0
Wind Variable Wind from SSE
Gusts 0.0 mph

Today
High -- | Low -- °F
--% Chance of Precip.
Yesterday
High -- | Low -- °F
Precip. -- in
7:19 AM 7:28 PM
Waning Crescent, 1% visible
Pressure 30.15 in
Visibility 2.8 miles
Clouds Few 2500 ft
Windchill 42 °F
Dew Point 39 °F
Humidity 87%
Rainfall 0.00 in
Snow Depth Not available.
UV 0 out of 12
Pollen Not available.
Air Quality Not available.
Flu Activity Not available.
METAR EDFH 230320Z 27004KT 4500 BR FEW025 06/06 Q1021

More Conditions Fewer Conditions

Pressure 30.15 in
Visibility 2.8 miles
Clouds Few 2500 ft
Windchill 42 °F
Dew Point 39 °F
Humidity 87%
Rainfall 0.00 in
Snow Depth Not available.
UV 0 out of 12
Pollen Not available.
Air Quality Not available.
Flu Activity Not available.
METAR EDFH 230320Z 27004KT 4500 BR FEW025 06/06 Q1021

More Conditions Fewer Conditions

10-Day Weather Forecast

Almanac

Astronomy

Sep. 23, 2014 Rise Set
Actual Time 7:19 AM CEST 7:28 PM CEST
Civil Twilight 6:47 AM CEST 8:00 PM CEST
Nautical Twilight 6:09 AM CEST 8:37 PM CEST
Astronomical Twilight 5:30 AM CEST 9:16 PM CEST
Moon 6:26 AM CEST 6:58 PM CEST
Length of Visible Light 13h 12m
Length of Day
12h 08m
Tomorrow will be 3m 40s shorter.
Waning Crescent, 1% of the Moon is Illuminated
Sep 22
Waning Crescent
Sep 24
New
Oct 1
First Quarter
Oct 8
Full
Oct 15
Last Quarter

Yesterday's Extremes

Country Highs Country Lows

Community

WunderPhotos

Upload Photos

1,755,604 photos uploaded!

Nearby

Snow Depth

Not available.

Earthquake Activity

City Distance Mag. Time & Date
No recent earthquake activity has been reported nearby.
Minimum magnitude displayed is 2.5.

Coastal Water Temperatures

Place Temperature
No Stations Reporting

Nearby Weather Stations